Time;durP1;ratioP1;P1;durP2;ratioP2;P2;SDS_P1;SDS_P2;PMS_P1;PMS_P2;Temp;Humidity;BMP_temperature;BMP_pressure;BME280_temperature;BME280_humidity;BME280_pressure;Samples;Min_cycle;Max_cycle;Signal;HPM_P1;HPM_P2
2022/12/19 00:00:32;;;;;;;51.38;33.35;;;0.80;99.90;;;;;;5084143;28;20056;-81
2022/12/19 00:02:58;;;;;;;51.25;33.40;;;0.80;99.90;;;;;;5064413;28;20055;-82
2022/12/19 00:05:23;;;;;;;49.95;33.28;;;0.90;99.90;;;;;;5087693;28;20044;-80
2022/12/19 00:07:49;;;;;;;52.05;33.38;;;0.90;99.90;;;;;;5068359;28;20042;-81
2022/12/19 00:10:15;;;;;;;48.10;32.30;;;0.80;99.90;;;;;;5083480;28;20047;-80
2022/12/19 00:12:40;;;;;;;48.13;33.03;;;0.90;99.90;;;;;;5100152;28;20036;-82
2022/12/19 00:15:07;;;;;;;52.50;32.88;;;0.90;99.90;;;;;;5084331;28;20130;-81
2022/12/19 00:17:32;;;;;;;45.55;31.70;;;0.90;99.90;;;;;;5086002;28;20580;-81
2022/12/19 00:19:58;;;;;;;49.25;34.42;;;0.90;99.90;;;;;;5065950;28;20048;-81
2022/12/19 00:22:24;;;;;;;50.97;33.63;;;0.90;99.90;;;;;;5101710;28;20140;-81
2022/12/19 00:24:49;;;;;;;54.20;33.55;;;0.90;99.90;;;;;;5086373;28;20135;-82
2022/12/19 00:27:15;;;;;;;49.50;32.70;;;0.90;99.90;;;;;;5067895;28;20123;-82
2022/12/19 00:29:40;;;;;;;48.80;33.17;;;0.90;99.90;;;;;;5068065;28;20483;-82
2022/12/19 00:32:06;;;;;;;50.58;33.40;;;0.90;99.90;;;;;;5080766;28;20047;-81
2022/12/19 00:34:32;;;;;;;49.03;32.20;;;0.90;99.90;;;;;;5064480;28;20052;-81
2022/12/19 00:36:57;;;;;;;48.70;31.83;;;0.90;99.90;;;;;;5069107;28;20048;-82
2022/12/19 00:39:23;;;;;;;50.83;33.15;;;0.90;99.90;;;;;;5086372;28;20044;-81
2022/12/19 00:41:48;;;;;;;49.78;31.42;;;0.90;99.90;;;;;;5083097;28;20559;-82
2022/12/19 00:44:14;;;;;;;47.78;32.20;;;0.90;99.90;;;;;;5084205;28;20036;-81
2022/12/19 00:46:40;;;;;;;47.88;32.67;;;0.90;99.90;;;;;;5082772;28;20060;-81
2022/12/19 00:49:06;;;;;;;46.50;31.40;;;0.90;99.90;;;;;;5084768;28;20067;-81
2022/12/19 00:51:35;;;;;;;46.60;32.80;;;0.90;99.90;;;;;;5066588;28;20056;-82
2022/12/19 00:54:01;;;;;;;50.55;33.60;;;1.00;99.90;;;;;;5085789;28;20048;-81
2022/12/19 00:56:29;;;;;;;48.28;31.40;;;1.00;99.90;;;;;;5085596;28;20051;-82
2022/12/19 00:58:55;;;;;;;48.75;32.22;;;1.00;99.90;;;;;;5067165;28;20569;-81
2022/12/19 01:01:24;;;;;;;48.70;31.75;;;1.00;99.90;;;;;;5064847;28;20043;-82
2022/12/19 01:03:50;;;;;;;47.53;31.35;;;1.00;99.90;;;;;;5099339;28;20047;-82
2022/12/19 01:06:16;;;;;;;50.35;32.53;;;1.00;99.90;;;;;;5087252;28;20050;-82
2022/12/19 01:08:42;;;;;;;50.88;33.30;;;1.00;99.90;;;;;;5066920;28;20399;-82
2022/12/19 01:11:07;;;;;;;49.25;32.08;;;1.10;99.90;;;;;;5063167;28;20439;-82
2022/12/19 01:13:35;;;;;;;51.08;33.83;;;1.10;99.90;;;;;;5066456;28;20059;-82
2022/12/19 01:16:08;;;;;;;52.90;33.80;;;1.10;99.90;;;;;;5071663;28;20097;-81
2022/12/19 01:18:34;;;;;;;50.90;33.55;;;1.10;99.90;;;;;;5086091;28;20044;-82
2022/12/19 01:21:02;;;;;;;51.25;32.13;;;1.10;99.90;;;;;;5087355;28;20040;-82
2022/12/19 01:23:29;;;;;;;50.85;32.40;;;1.10;99.90;;;;;;5089806;28;20813;-82
2022/12/19 01:25:55;;;;;;;52.25;33.13;;;1.10;99.90;;;;;;5071144;28;20044;-82
2022/12/19 01:28:22;;;;;;;51.03;32.95;;;1.10;99.90;;;;;;5101278;27;20123;-82
2022/12/19 01:30:48;;;;;;;49.13;31.73;;;1.10;99.90;;;;;;5102767;28;20093;-82
2022/12/19 01:33:16;;;;;;;51.53;35.13;;;1.20;99.90;;;;;;5089620;28;20097;-82
2022/12/19 01:35:44;;;;;;;57.25;34.85;;;1.10;99.90;;;;;;5090428;28;20039;-82
2022/12/19 01:38:13;;;;;;;53.10;32.58;;;1.20;99.90;;;;;;5071716;28;20062;-82
2022/12/19 01:40:39;;;;;;;53.38;33.58;;;1.20;99.90;;;;;;5085738;28;20060;-82
2022/12/19 01:43:05;;;;;;;53.00;34.35;;;1.20;99.90;;;;;;5072461;28;20153;-82
2022/12/19 01:45:33;;;;;;;54.30;35.42;;;1.20;99.90;;;;;;5085684;28;20501;-81
2022/12/19 01:48:20;;;;;;;53.67;32.95;;;1.20;99.90;;;;;;5089427;28;20111;-82
2022/12/19 01:51:04;;;;;;;;;;;1.20;99.90;;;;;;5073744;28;20070;-82
2022/12/19 01:53:45;;;;;;;55.20;32.45;;;1.20;99.90;;;;;;5088073;28;19924;-82
2022/12/19 01:56:11;;;;;;;58.53;34.58;;;1.20;99.90;;;;;;5088021;28;20075;-82
2022/12/19 01:58:45;;;;;;;50.65;33.63;;;1.20;99.90;;;;;;5067201;28;20093;-82
2022/12/19 02:01:12;;;;;;;55.42;34.25;;;1.30;99.90;;;;;;5069941;28;20036;-82
2022/12/19 02:03:39;;;;;;;57.00;34.17;;;1.30;99.90;;;;;;5087397;28;20377;-82
2022/12/19 02:06:07;;;;;;;55.33;35.67;;;1.30;99.90;;;;;;5087022;28;20294;-82
2022/12/19 02:08:34;;;;;;;54.80;33.55;;;1.30;99.90;;;;;;5086907;28;20051;-82
2022/12/19 02:10:59;;;;;;;58.33;34.78;;;1.30;99.90;;;;;;5105021;28;20040;-82
2022/12/19 02:13:25;;;;;;;58.25;35.80;;;1.30;99.90;;;;;;5066061;28;20464;-83
2022/12/19 02:15:55;;;;;;;56.30;34.80;;;1.30;99.90;;;;;;5069909;28;20393;-82
2022/12/19 02:18:39;;;;;;;56.13;36.03;;;1.30;99.90;;;;;;5086884;28;20054;-81
2022/12/19 02:21:27;;;;;;;58.63;36.35;;;1.30;99.90;;;;;;5088979;28;20055;-82
2022/12/19 02:24:10;;;;;;;57.55;35.10;;;1.30;99.90;;;;;;5066401;28;20075;-82
2022/12/19 02:26:50;;;;;;;55.70;34.83;;;1.40;99.90;;;;;;5061002;28;20479;-82
2022/12/19 02:29:55;;;;;;;52.65;32.75;;;1.40;99.90;;;;;;5068115;28;20105;-82
2022/12/19 02:32:52;;;;;;;56.63;34.85;;;1.40;99.90;;;;;;5087825;28;20075;-82
2022/12/19 02:35:28;;;;;;;53.97;32.78;;;1.40;99.90;;;;;;5084917;28;20101;-82
2022/12/19 02:38:32;;;;;;;54.20;34.90;;;1.40;99.90;;;;;;5086538;28;20047;-82
2022/12/19 02:41:09;;;;;;;57.22;35.20;;;1.40;99.90;;;;;;5077030;28;20090;-82
2022/12/19 02:43:40;;;;;;;61.50;36.50;;;1.50;99.90;;;;;;5068368;28;20446;-82
2022/12/19 02:46:08;;;;;;;60.35;35.17;;;1.50;99.90;;;;;;5084123;28;20052;-82
2022/12/19 02:48:33;;;;;;;;;;;1.50;99.90;;;;;;5088468;28;20067;-82
2022/12/19 02:50:59;;;;;;;61.33;35.83;;;1.50;99.90;;;;;;5086993;28;20405;-82
2022/12/19 02:53:25;;;;;;;64.97;37.95;;;1.50;99.90;;;;;;5087080;28;20494;-82
2022/12/19 02:56:29;;;;;;;69.47;38.50;;;1.50;99.90;;;;;;5087452;28;20050;-82
2022/12/19 02:59:06;;;;;;;72.82;41.05;;;1.50;99.90;;;;;;4979211;28;20060;-81
2022/12/19 03:01:41;;;;;;;75.10;41.47;;;1.50;99.90;;;;;;5053011;28;20086;-82
2022/12/19 03:04:33;;;;;;;77.88;41.20;;;1.50;99.90;;;;;;5086820;28;20079;-81
2022/12/19 03:07:08;;;;;;;75.38;39.45;;;1.50;99.90;;;;;;5085871;28;20412;-80
2022/12/19 03:09:51;;;;;;;88.57;42.45;;;1.50;99.90;;;;;;5069061;28;20117;-81
2022/12/19 03:12:27;;;;;;;86.78;41.30;;;1.50;99.90;;;;;;5065606;28;20063;-81
2022/12/19 03:14:55;;;;;;;92.05;41.88;;;1.50;99.90;;;;;;5054762;28;20644;-82
2022/12/19 03:17:21;;;;;;;82.25;41.80;;;1.50;99.90;;;;;;5068812;28;20051;-80
2022/12/19 03:19:46;;;;;;;88.28;44.45;;;1.50;99.90;;;;;;5088393;28;20036;-81
2022/12/19 03:22:12;;;;;;;86.88;43.53;;;1.50;99.90;;;;;;5083716;28;20036;-81
2022/12/19 03:24:38;;;;;;;87.18;44.13;;;1.50;99.90;;;;;;5086320;28;20044;-80
2022/12/19 03:27:22;;;;;;;93.50;44.35;;;1.50;99.90;;;;;;5084996;28;20036;-81
2022/12/19 03:29:51;;;;;;;97.93;44.60;;;1.60;99.90;;;;;;5083727;28;20571;-81
2022/12/19 03:32:18;;;;;;;91.63;45.95;;;1.60;99.90;;;;;;5088598;28;20106;-81
2022/12/19 03:34:50;;;;;;;88.38;43.97;;;1.60;99.90;;;;;;5086444;28;20039;-79
2022/12/19 03:37:21;;;;;;;94.97;45.10;;;1.60;99.90;;;;;;5086393;28;20447;-80
2022/12/19 03:39:53;;;;;;;98.75;46.58;;;1.60;99.90;;;;;;5087215;28;20071;-80
2022/12/19 03:45:07;;;;;;;92.85;45.67;;;1.60;99.90;;;;;;5086459;28;20048;-79
2022/12/19 03:47:38;;;;;;;91.80;44.95;;;1.60;99.90;;;;;;5085995;28;20040;-80
2022/12/19 03:50:05;;;;;;;98.72;46.83;;;1.70;99.90;;;;;;5069466;28;20125;-80
2022/12/19 03:52:44;;;;;;;97.25;46.33;;;1.70;99.90;;;;;;5080353;28;21060;-80
2022/12/19 03:55:25;;;;;;;97.47;47.03;;;1.70;99.90;;;;;;5065347;28;20066;-80
2022/12/19 03:58:08;;;;;;;99.35;46.60;;;1.70;99.90;;;;;;5075830;28;20383;-80
2022/12/19 04:00:36;;;;;;;98.30;44.78;;;1.70;99.90;;;;;;5083368;28;20051;-80
2022/12/19 04:03:04;;;;;;;104.90;47.25;;;1.70;99.90;;;;;;5086780;28;20480;-80
2022/12/19 04:05:31;;;;;;;103.43;48.13;;;1.80;99.90;;;;;;5099587;28;20132;-80
2022/12/19 04:08:02;;;;;;;104.95;47.10;;;1.80;99.90;;;;;;5068279;28;20048;-80
2022/12/19 04:10:31;;;;;;;107.72;49.45;;;1.80;99.90;;;;;;5087225;28;20047;-80
2022/12/19 04:13:05;;;;;;;107.55;47.22;;;1.80;99.90;;;;;;5081259;28;20044;-81
2022/12/19 04:15:49;;;;;;;95.82;45.30;;;1.80;99.90;;;;;;5086352;28;20051;-81
2022/12/19 04:18:17;;;;;;;99.90;47.58;;;1.80;99.90;;;;;;5067148;28;20043;-81
2022/12/19 04:21:08;;;;;;;101.88;47.83;;;1.80;99.90;;;;;;5086441;28;20059;-80
2022/12/19 04:23:41;;;;;;;103.40;49.08;;;1.90;99.90;;;;;;5076348;28;20048;-80
2022/12/19 04:26:07;;;;;;;102.72;48.00;;;1.90;99.90;;;;;;5082965;28;20522;-80
2022/12/19 04:28:41;;;;;;;107.75;48.20;;;1.90;99.90;;;;;;5084526;28;20040;-80
2022/12/19 04:31:11;;;;;;;111.35;49.65;;;2.00;99.90;;;;;;5086776;28;20249;-80
2022/12/19 04:33:37;;;;;;;113.22;50.25;;;2.00;99.90;;;;;;5085129;28;20047;-80
2022/12/19 04:36:03;;;;;;;116.65;54.30;;;2.00;99.90;;;;;;5084520;28;20480;-80
2022/12/19 04:38:28;;;;;;;105.05;50.30;;;2.00;99.90;;;;;;5068856;28;20040;-80
2022/12/19 04:40:55;;;;;;;116.55;53.72;;;2.00;99.90;;;;;;5065362;28;20037;-80
2022/12/19 04:43:21;;;;;;;103.15;47.75;;;2.00;99.90;;;;;;5081831;28;20489;-80
2022/12/19 04:45:46;;;;;;;105.72;47.90;;;2.10;99.90;;;;;;5065763;28;20066;-80
2022/12/19 04:48:12;;;;;;;102.35;47.58;;;2.10;99.90;;;;;;5087094;28;20051;-80
2022/12/19 04:50:38;;;;;;;111.65;53.55;;;2.10;99.90;;;;;;5091346;28;20063;-81
2022/12/19 04:53:04;;;;;;;116.72;53.20;;;2.10;99.90;;;;;;5068394;28;20048;-81
2022/12/19 04:55:30;;;;;;;139.02;69.05;;;2.10;99.90;;;;;;5090264;28;20040;-80
2022/12/19 04:57:55;;;;;;;117.45;54.42;;;2.20;99.90;;;;;;5070608;28;20051;-80
2022/12/19 05:00:21;;;;;;;102.75;53.92;;;2.20;99.90;;;;;;5088677;28;20036;-81
2022/12/19 05:02:47;;;;;;;211.60;99.05;;;2.20;99.90;;;;;;5084270;28;20044;-80
2022/12/19 05:05:12;;;;;;;202.55;90.88;;;2.20;99.90;;;;;;5090216;28;20471;-80
2022/12/19 05:07:39;;;;;;;203.32;97.18;;;2.30;99.90;;;;;;5090235;28;20201;-80
2022/12/19 05:10:05;;;;;;;175.57;86.20;;;2.30;99.90;;;;;;5089871;28;20046;-80
2022/12/19 05:12:31;;;;;;;170.25;85.10;;;2.30;99.90;;;;;;5070345;28;20903;-80
2022/12/19 05:14:57;;;;;;;159.38;77.10;;;2.40;99.90;;;;;;5089850;28;20047;-80
2022/12/19 05:17:22;;;;;;;192.57;89.45;;;2.40;99.90;;;;;;5070072;28;20047;-81
2022/12/19 05:19:48;;;;;;;227.32;121.13;;;2.40;99.90;;;;;;5088625;28;20050;-80
2022/12/19 05:22:14;;;;;;;198.68;95.85;;;2.50;99.90;;;;;;5089391;28;20028;-81
2022/12/19 05:24:40;;;;;;;192.48;94.28;;;2.50;99.90;;;;;;5069940;28;20120;-80
2022/12/19 05:27:06;;;;;;;200.88;110.10;;;2.50;99.90;;;;;;5073246;28;20123;-81
2022/12/19 05:29:32;;;;;;;170.27;86.82;;;2.60;99.90;;;;;;5087326;28;20048;-81
2022/12/19 05:31:57;;;;;;;203.40;103.57;;;2.60;99.90;;;;;;5087005;28;20032;-80
2022/12/19 05:34:23;;;;;;;182.00;97.82;;;2.70;99.90;;;;;;5087945;28;20368;-80
2022/12/19 05:36:49;;;;;;;175.73;92.38;;;2.70;99.90;;;;;;5067645;28;20513;-80
2022/12/19 05:39:15;;;;;;;143.18;71.60;;;2.80;99.90;;;;;;5068969;28;20043;-80
2022/12/19 05:41:41;;;;;;;135.85;67.63;;;2.80;99.90;;;;;;5089498;28;20487;-81
2022/12/19 05:44:08;;;;;;;171.50;84.05;;;2.80;99.90;;;;;;5088222;28;20028;-80
2022/12/19 05:46:34;;;;;;;194.13;96.57;;;2.80;99.90;;;;;;5067715;28;20082;-80
2022/12/19 05:48:59;;;;;;;164.55;76.95;;;2.90;99.90;;;;;;5088686;28;20114;-81
2022/12/19 05:51:25;;;;;;;152.77;74.47;;;2.90;99.90;;;;;;5070099;28;20510;-81
2022/12/19 05:53:51;;;;;;;152.05;68.60;;;2.90;99.90;;;;;;5070788;28;20055;-80
2022/12/19 05:56:19;;;;;;;144.55;69.88;;;2.90;99.90;;;;;;5088173;28;20388;-81
2022/12/19 05:58:45;;;;;;;141.82;60.38;;;2.90;99.90;;;;;;5085460;28;20197;-81
2022/12/19 06:01:20;;;;;;;145.38;67.07;;;2.90;99.90;;;;;;5066927;28;20089;-80
2022/12/19 06:03:46;;;;;;;137.55;68.35;;;2.90;99.90;;;;;;5071044;28;20054;-81
2022/12/19 06:06:14;;;;;;;131.38;66.70;;;2.90;99.90;;;;;;5070903;28;20122;-82
2022/12/19 06:08:40;;;;;;;147.63;79.95;;;3.00;99.90;;;;;;5070940;28;20116;-80
2022/12/19 06:11:07;;;;;;;160.27;75.05;;;3.00;99.90;;;;;;5089098;28;20467;-82
2022/12/19 06:13:33;;;;;;;135.77;72.67;;;3.00;99.90;;;;;;5069381;28;20044;-81
2022/12/19 06:16:03;;;;;;;129.88;60.78;;;3.00;99.90;;;;;;5087551;28;20306;-82
2022/12/19 06:18:30;;;;;;;125.13;63.00;;;3.00;99.90;;;;;;5070539;28;20040;-82
2022/12/19 06:20:57;;;;;;;124.87;59.93;;;3.10;99.90;;;;;;5089416;28;20044;-81
2022/12/19 06:23:23;;;;;;;116.57;52.03;;;3.10;99.90;;;;;;5086715;28;20290;-81
2022/12/19 06:25:49;;;;;;;117.18;54.70;;;3.10;99.90;;;;;;5085428;28;20671;-81
2022/12/19 06:28:14;;;;;;;109.55;57.08;;;3.20;99.90;;;;;;5088528;28;20089;-81
2022/12/19 06:30:40;;;;;;;120.93;52.80;;;3.20;99.90;;;;;;5083657;28;20135;-81
2022/12/19 06:33:05;;;;;;;108.63;58.63;;;3.20;99.90;;;;;;5069996;28;20040;-81
2022/12/19 06:35:31;;;;;;;112.78;53.22;;;3.30;99.90;;;;;;5087290;28;20056;-81
2022/12/19 06:37:57;;;;;;;119.53;61.40;;;3.30;99.90;;;;;;5088588;28;20130;-81
2022/12/19 06:43:06;;;;;;;113.38;52.38;;;3.40;99.90;;;;;;5105023;28;20091;-82
2022/12/19 06:45:32;;;;;;;124.75;62.92;;;3.40;99.90;;;;;;5068348;28;20525;-83
2022/12/19 06:47:57;;;;;;;122.80;56.33;;;3.50;99.90;;;;;;5069443;28;20044;-82
2022/12/19 06:50:23;;;;;;;128.20;65.50;;;3.50;99.90;;;;;;5089099;28;20119;-83
2022/12/19 06:52:50;;;;;;;122.30;63.58;;;3.50;99.90;;;;;;5089967;28;20040;-89
2022/12/19 06:55:15;;;;;;;116.05;62.72;;;3.60;99.90;;;;;;5084993;28;20040;-81
2022/12/19 06:57:44;;;;;;;120.45;57.83;;;3.60;99.90;;;;;;5081608;28;20044;-81
2022/12/19 07:00:12;;;;;;;111.05;56.33;;;3.60;99.90;;;;;;5100372;28;20048;-81
2022/12/19 07:02:41;;;;;;;;;;;3.70;99.90;;;;;;5066397;28;20058;-81
2022/12/19 07:05:08;;;;;;;120.53;55.25;;;3.70;99.90;;;;;;5084665;28;19924;-80
2022/12/19 07:07:34;;;;;;;127.70;65.93;;;3.70;99.90;;;;;;5067600;28;20048;-81
2022/12/19 07:10:01;;;;;;;114.77;62.37;;;3.80;99.90;;;;;;5083755;28;20043;-80
2022/12/19 07:12:26;;;;;;;117.85;63.03;;;3.80;99.90;;;;;;5069460;28;20095;-77
2022/12/19 07:14:52;;;;;;;128.55;64.97;;;3.80;99.90;;;;;;5083797;28;20106;-81
2022/12/19 07:17:19;;;;;;;120.22;63.70;;;3.80;99.90;;;;;;5084174;28;20058;-81
2022/12/19 07:19:45;;;;;;;109.65;59.58;;;3.80;99.90;;;;;;5095343;28;20071;-81
2022/12/19 07:22:11;;;;;;;101.28;58.53;;;3.90;99.90;;;;;;5087026;28;20059;-81
2022/12/19 07:24:37;;;;;;;113.68;59.13;;;3.90;99.90;;;;;;5066056;28;20124;-81
2022/12/19 07:27:03;;;;;;;110.25;56.45;;;4.00;99.90;;;;;;5086407;28;20036;-81
2022/12/19 07:29:28;;;;;;;97.13;54.50;;;4.00;99.90;;;;;;5062888;28;20131;-81
2022/12/19 07:31:54;;;;;;;91.80;52.53;;;4.00;99.90;;;;;;5066516;28;20181;-81
2022/12/19 07:34:20;;;;;;;86.38;48.53;;;4.00;99.90;;;;;;5062625;28;20054;-81
2022/12/19 07:36:46;;;;;;;82.88;49.58;;;4.10;99.90;;;;;;5084150;28;20104;-80
2022/12/19 07:39:12;;;;;;;97.07;51.97;;;4.10;99.90;;;;;;5087034;28;20053;-81
2022/12/19 07:41:38;;;;;;;79.75;48.22;;;4.20;99.90;;;;;;5070416;28;20040;-81
2022/12/19 07:44:05;;;;;;;92.75;50.03;;;4.20;99.90;;;;;;5079551;28;20035;-81
2022/12/19 07:46:30;;;;;;;84.55;50.22;;;4.30;99.90;;;;;;5085867;28;20035;-81
2022/12/19 07:49:00;;;;;;;85.45;48.15;;;4.30;99.90;;;;;;5069101;28;20051;-81
2022/12/19 07:51:26;;;;;;;106.30;50.70;;;4.40;99.90;;;;;;5085988;28;20051;-81
2022/12/19 07:53:51;;;;;;;109.97;54.15;;;4.40;99.90;;;;;;5086711;28;20044;-81
2022/12/19 07:56:18;;;;;;;91.45;50.42;;;4.50;99.90;;;;;;5102942;28;20048;-81
2022/12/19 07:58:43;;;;;;;90.53;48.67;;;4.40;99.90;;;;;;5064491;28;20385;-81
2022/12/19 08:01:11;;;;;;;94.88;50.85;;;4.40;99.90;;;;;;5085489;28;20494;-80
2022/12/19 08:03:36;;;;;;;104.88;51.45;;;4.40;99.90;;;;;;5083506;28;20047;-81
2022/12/19 08:06:04;;;;;;;85.80;48.67;;;4.40;99.90;;;;;;5068488;28;20081;-81
2022/12/19 08:08:31;;;;;;;87.78;48.22;;;4.50;99.90;;;;;;5086129;28;20079;-81
2022/12/19 08:11:17;;;;;;;93.47;49.38;;;4.50;99.90;;;;;;5067071;28;20055;-81
2022/12/19 08:13:45;;;;;;;86.20;46.58;;;4.50;99.90;;;;;;5085795;28;20126;-82
2022/12/19 08:16:10;;;;;;;90.28;48.45;;;4.50;99.90;;;;;;5082959;28;20032;-80
2022/12/19 08:18:36;;;;;;;93.28;49.50;;;4.60;99.90;;;;;;5083548;28;20046;-76
2022/12/19 08:21:02;;;;;;;83.90;47.85;;;4.60;99.90;;;;;;5082833;28;20040;-79
2022/12/19 08:23:29;;;;;;;94.05;52.25;;;4.70;99.90;;;;;;5080590;28;20185;-82
2022/12/19 08:26:03;;;;;;;101.15;53.60;;;4.70;99.90;;;;;;5084035;28;20043;-82
2022/12/19 08:28:30;;;;;;;91.82;49.67;;;4.70;99.90;;;;;;5083042;28;20036;-87
2022/12/19 08:30:56;;;;;;;85.13;47.08;;;4.70;99.90;;;;;;5080007;28;20036;-83
2022/12/19 08:33:22;;;;;;;97.00;49.15;;;4.70;99.90;;;;;;5061310;28;20070;-81
2022/12/19 08:35:48;;;;;;;92.70;47.97;;;4.70;99.90;;;;;;5082902;28;20169;-81
2022/12/19 08:38:14;;;;;;;100.53;52.00;;;4.80;99.90;;;;;;5065823;28;20082;-80
2022/12/19 08:40:39;;;;;;;90.30;49.30;;;4.80;99.90;;;;;;5068301;28;20069;-79
2022/12/19 08:43:05;;;;;;;96.25;50.95;;;4.80;99.90;;;;;;5069231;28;20048;-77
2022/12/19 08:45:30;;;;;;;89.93;51.00;;;4.80;99.90;;;;;;5090027;28;20040;-80
2022/12/19 08:47:56;;;;;;;88.07;49.45;;;4.90;99.90;;;;;;5084910;28;20040;-77
2022/12/19 08:50:22;;;;;;;103.68;51.00;;;4.90;99.90;;;;;;5087355;28;20098;-78
2022/12/19 08:52:47;;;;;;;88.35;49.33;;;5.00;99.90;;;;;;5065357;28;20551;-78
2022/12/19 08:55:13;;;;;;;89.15;48.88;;;5.00;99.90;;;;;;5084858;28;20080;-78
2022/12/19 08:57:39;;;;;;;88.07;49.38;;;5.00;99.90;;;;;;5087479;28;20079;-79
2022/12/19 09:00:07;;;;;;;84.65;49.30;;;5.00;99.90;;;;;;5087985;28;20040;-77
2022/12/19 09:02:32;;;;;;;81.45;46.53;;;5.10;99.90;;;;;;5087136;28;20449;-78
2022/12/19 09:04:58;;;;;;;92.88;50.55;;;5.10;99.90;;;;;;5084133;28;20052;-79
2022/12/19 09:07:24;;;;;;;86.18;51.78;;;5.10;99.90;;;;;;5063954;28;20054;-81
2022/12/19 09:09:49;;;;;;;84.95;51.83;;;5.20;99.90;;;;;;5083104;28;20052;-77
2022/12/19 09:12:15;;;;;;;78.72;48.30;;;5.20;99.90;;;;;;5086718;28;20586;-78
2022/12/19 09:14:42;;;;;;;82.25;48.92;;;5.20;99.90;;;;;;5084732;28;20044;-75
2022/12/19 09:17:08;;;;;;;84.88;50.15;;;5.30;99.90;;;;;;5087450;28;20522;-77
2022/12/19 09:19:34;;;;;;;86.95;50.85;;;5.30;99.90;;;;;;5085848;28;20056;-76
2022/12/19 09:22:00;;;;;;;82.45;50.25;;;5.30;99.90;;;;;;5086562;28;20048;-76
2022/12/19 09:24:25;;;;;;;88.90;49.47;;;5.40;99.90;;;;;;5080184;28;20036;-77
2022/12/19 09:26:51;;;;;;;87.40;50.05;;;5.40;99.90;;;;;;5083355;28;20781;-76
2022/12/19 09:29:17;;;;;;;83.97;49.25;;;5.40;99.90;;;;;;5085134;28;20051;-75
2022/12/19 09:31:42;;;;;;;74.70;45.40;;;5.40;99.90;;;;;;5070005;28;20044;-75
2022/12/19 09:34:08;;;;;;;76.55;46.17;;;5.40;99.90;;;;;;5088504;28;20044;-76
2022/12/19 09:36:33;;;;;;;76.55;46.88;;;5.40;99.90;;;;;;5088601;28;20036;-76
2022/12/19 09:38:59;;;;;;;75.38;46.03;;;5.50;99.90;;;;;;5087970;28;20650;-76
2022/12/19 09:41:50;;;;;;;73.30;45.65;;;5.50;99.90;;;;;;5088610;28;20087;-76
2022/12/19 09:44:34;;;;;;;77.72;46.63;;;5.60;99.90;;;;;;5082076;28;20044;-79
2022/12/19 09:47:03;;;;;;;69.15;43.88;;;5.60;99.90;;;;;;5086090;28;20056;-76
2022/12/19 09:49:36;;;;;;;76.50;43.17;;;5.60;99.90;;;;;;5087709;28;20462;-75
2022/12/19 09:52:06;;;;;;;72.95;44.75;;;5.60;99.90;;;;;;5091082;28;20040;-77
2022/12/19 09:54:47;;;;;;;61.83;40.85;;;5.60;99.90;;;;;;5086909;28;20139;-76
2022/12/19 09:57:22;;;;;;;66.97;41.17;;;5.70;99.90;;;;;;5091370;28;20043;-77
2022/12/19 09:59:55;;;;;;;62.13;40.40;;;5.70;99.90;;;;;;5078841;28;20625;-77
2022/12/19 10:02:42;;;;;;;59.88;39.10;;;5.70;99.90;;;;;;5088162;28;20028;-78
2022/12/19 10:05:29;;;;;;;63.13;39.58;;;5.70;99.90;;;;;;5089986;28;20055;-76
2022/12/19 10:07:55;;;;;;;58.75;38.63;;;5.80;99.90;;;;;;5068909;28;20028;-75
2022/12/19 10:10:32;;;;;;;56.33;37.92;;;5.80;99.90;;;;;;5088410;28;20040;-76
2022/12/19 10:13:20;;;;;;;47.58;34.53;;;5.80;99.90;;;;;;5088535;28;20044;-75
2022/12/19 10:16:15;;;;;;;60.75;38.58;;;5.90;99.90;;;;;;5081901;28;20480;-72
2022/12/19 10:18:53;;;;;;;51.13;35.80;;;5.80;99.90;;;;;;5072963;28;20044;-72
2022/12/19 10:21:53;;;;;;;58.88;37.70;;;5.90;99.90;;;;;;5089491;28;20445;-72
2022/12/19 10:24:48;;;;;;;52.95;35.47;;;5.90;99.90;;;;;;5089380;28;20083;-72
2022/12/19 10:27:43;;;;;;;49.60;35.28;;;6.00;99.90;;;;;;5089533;28;20134;-72
2022/12/19 10:30:16;;;;;;;55.22;36.63;;;6.00;99.90;;;;;;5058862;28;20051;-73
2022/12/19 10:33:03;;;;;;;52.95;36.42;;;6.00;99.90;;;;;;5064232;28;20052;-74
2022/12/19 10:35:41;;;;;;;52.63;35.28;;;6.00;99.90;;;;;;5089449;28;20655;-73
2022/12/19 10:38:28;;;;;;;56.55;37.03;;;6.00;99.90;;;;;;5087060;28;20131;-74
2022/12/19 10:41:19;;;;;;;48.78;34.92;;;6.10;99.90;;;;;;5084832;28;20192;-72
2022/12/19 10:44:07;;;;;;;53.92;35.75;;;6.10;99.90;;;;;;5078817;28;20036;-73
2022/12/19 10:46:47;;;;;;;55.03;36.35;;;6.10;99.90;;;;;;5087713;28;20079;-70
2022/12/19 10:49:13;;;;;;;58.78;37.45;;;6.10;99.90;;;;;;5066604;28;20513;-71
2022/12/19 10:51:39;;;;;;;48.97;34.92;;;6.10;99.90;;;;;;5085509;28;20076;-72
2022/12/19 10:54:05;;;;;;;50.05;33.92;;;6.10;99.90;;;;;;5103943;27;20192;-71
2022/12/19 10:56:32;;;;;;;49.33;34.65;;;6.10;99.90;;;;;;5070782;28;20237;-71
2022/12/19 10:59:00;;;;;;;51.70;34.00;;;6.10;99.90;;;;;;5104246;28;20048;-71
2022/12/19 11:01:43;;;;;;;48.25;33.97;;;6.10;99.90;;;;;;5085992;28;20407;-72
2022/12/19 11:04:16;;;;;;;56.92;37.20;;;6.10;99.90;;;;;;5069522;28;20078;-71
2022/12/19 11:06:51;;;;;;;52.63;33.45;;;6.20;99.90;;;;;;5062835;28;20047;-70
2022/12/19 11:09:23;;;;;;;50.17;34.42;;;6.20;99.90;;;;;;5085037;28;20028;-70
2022/12/19 11:12:15;;;;;;;48.83;33.97;;;6.20;99.90;;;;;;5086635;28;20048;-70
2022/12/19 11:14:49;;;;;;;47.65;35.55;;;6.30;99.90;;;;;;5085798;28;20048;-71
2022/12/19 11:17:33;;;;;;;47.67;32.13;;;6.20;99.90;;;;;;5086705;28;20490;-71
2022/12/19 11:20:20;;;;;;;49.03;32.97;;;6.30;99.90;;;;;;5088671;28;20447;-71
2022/12/19 11:23:01;;;;;;;50.97;33.15;;;6.30;99.90;;;;;;5068260;28;20055;-71
2022/12/19 11:25:39;;;;;;;45.60;33.00;;;6.30;99.90;;;;;;5086534;28;20040;-71
2022/12/19 11:28:21;;;;;;;48.60;33.63;;;6.40;99.90;;;;;;5074203;28;20032;-71
2022/12/19 11:31:07;;;;;;;43.22;31.65;;;6.40;99.90;;;;;;5063091;28;20456;-71
2022/12/19 11:33:33;;;;;;;43.50;32.97;;;6.40;99.90;;;;;;5051113;28;20056;-71
2022/12/19 11:36:01;;;;;;;44.42;32.55;;;6.40;99.90;;;;;;5067864;28;20081;-73
2022/12/19 11:38:51;;;;;;;43.78;31.25;;;6.40;99.90;;;;;;5068119;28;20052;-72
2022/12/19 11:41:44;;;;;;;41.53;30.80;;;6.50;99.90;;;;;;5060816;28;20044;-72
2022/12/19 11:44:44;;;;;;;43.70;31.50;;;6.50;99.90;;;;;;5071168;28;20050;-72
2022/12/19 11:47:28;;;;;;;43.40;30.98;;;6.50;99.90;;;;;;5075944;28;20052;-76
2022/12/19 11:50:01;;;;;;;44.85;32.00;;;6.50;99.90;;;;;;5079729;28;20051;-75
2022/12/19 11:52:33;;;;;;;46.45;32.97;;;6.50;99.90;;;;;;5085703;28;20052;-74
2022/12/19 11:55:09;;;;;;;42.47;30.42;;;6.50;99.90;;;;;;5065176;28;20087;-73
2022/12/19 11:57:38;;;;;;;45.45;32.47;;;6.60;99.90;;;;;;5082210;28;20079;-70
2022/12/19 12:00:04;;;;;;;42.72;31.85;;;6.60;99.90;;;;;;5083746;28;20051;-73
2022/12/19 12:03:02;;;;;;;41.95;31.45;;;6.60;99.90;;;;;;5086771;28;20701;-70
2022/12/19 12:05:48;;;;;;;41.03;30.70;;;6.70;99.90;;;;;;5086464;28;20122;-70
2022/12/19 12:08:46;;;;;;;42.80;31.25;;;6.70;99.90;;;;;;5085233;28;20513;-70
2022/12/19 12:11:23;;;;;;;40.95;30.25;;;6.70;99.90;;;;;;5079156;28;20062;-70
2022/12/19 12:14:10;;;;;;;39.95;29.77;;;6.70;99.90;;;;;;5085302;28;20105;-71
2022/12/19 12:16:43;;;;;;;;;;;6.80;99.90;;;;;;5087406;28;20097;-71
2022/12/19 12:19:16;;;;;;;42.42;30.02;;;6.70;99.90;;;;;;5097418;28;19959;-71
2022/12/19 12:22:13;;;;;;;37.90;29.25;;;6.80;99.90;;;;;;5086210;28;20177;-71
2022/12/19 12:25:15;;;;;;;39.30;28.60;;;6.80;99.90;;;;;;5085894;28;20044;-72
2022/12/19 12:27:53;;;;;;;35.67;27.85;;;6.80;99.90;;;;;;5054148;28;20178;-72
2022/12/19 12:30:20;;;;;;;38.25;27.92;;;6.90;99.90;;;;;;5080553;28;20530;-71
2022/12/19 12:33:28;;;;;;;36.70;27.17;;;6.90;99.90;;;;;;5062595;28;20075;-72
2022/12/19 12:36:01;;;;;;;32.15;26.52;;;6.90;99.90;;;;;;5081218;28;20349;-72
2022/12/19 12:38:45;;;;;;;39.08;26.50;;;6.90;99.90;;;;;;5100214;28;20089;-74
2022/12/19 12:41:20;;;;;;;33.75;26.92;;;7.00;99.90;;;;;;5083915;28;20495;-73
2022/12/19 12:44:03;;;;;;;34.08;26.90;;;6.90;99.90;;;;;;5065153;28;20090;-73
2022/12/19 12:46:39;;;;;;;31.05;25.73;;;7.00;99.90;;;;;;5084475;28;20076;-72
2022/12/19 12:49:34;;;;;;;32.22;25.88;;;7.00;99.90;;;;;;5083079;28;20052;-76
2022/12/19 12:52:02;;;;;;;30.23;25.13;;;7.00;99.90;;;;;;5080503;28;20059;-77
2022/12/19 12:54:41;;;;;;;29.45;24.35;;;7.10;99.90;;;;;;5084240;28;20047;-74
2022/12/19 12:57:18;;;;;;;33.80;24.98;;;7.10;99.90;;;;;;5098360;28;20507;-76
2022/12/19 12:59:45;;;;;;;33.20;25.50;;;7.00;99.90;;;;;;5084219;28;20035;-74
2022/12/19 13:02:21;;;;;;;33.25;26.13;;;7.00;99.90;;;;;;5067127;28;20043;-74